EZY12EP LEBL-EGCC
Flight info
| Callsign | EZY12EP |
|---|---|
| Flight time | 2h 4m |
| Altitude | 36000 |
| Route | NATPI DCT EVNAM DCT TUPAR UN861 ANG DCT AKIKI UN867 AVANT UM184 HEMEL T420 ELVOS |
| Aircraft | A320/M-SDE2E3FGHIJ1RWXYZ/LB1 |
Departure
| Time | 2026-05-08 08:27 |
|---|---|
| Airport | Josep Tarradellas Barcelona-El Prat Airport (LEBL) |
Arrival
| Time | 2026-05-08 10:31 |
|---|---|
| Airport | Manchester Airport (EGCC) |
| Time | Latitude | Longitude | Altitude | Speed | Heading |
|---|---|---|---|---|---|
| 2026-05-08 07:56 | 41.30345 | 2.08142 | 20 ft | 0 kts | 35° |
| 2026-05-08 08:17 | 41.30341 | 2.08138 | -8 ft | 2 kts | 33° |
| 2026-05-08 08:17 | 41.30325 | 2.08126 | 20 ft | 3 kts | 16° |
| 2026-05-08 08:17 | 41.30305 | 2.08122 | 19 ft | 3 kts | 356° |
| 2026-05-08 08:18 | 41.30286 | 2.08126 | 20 ft | 3 kts | 340° |
| 2026-05-08 08:18 | 41.30267 | 2.08137 | 20 ft | 3 kts | 330° |
| 2026-05-08 08:18 | 41.30250 | 2.08151 | 20 ft | 3 kts | 330° |
| 2026-05-08 08:18 | 41.30233 | 2.08162 | 19 ft | 3 kts | 357° |
| 2026-05-08 08:19 | 41.30219 | 2.08158 | 18 ft | 3 kts | 36° |
| 2026-05-08 08:19 | 41.30204 | 2.08141 | 20 ft | 3 kts | 47° |
| 2026-05-08 08:19 | 41.30191 | 2.08120 | 18 ft | 3 kts | 59° |
| 2026-05-08 08:19 | 41.30183 | 2.08101 | 22 ft | 1 kts | 66° |
| 2026-05-08 08:20 | 41.30183 | 2.08099 | 22 ft | 0 kts | 66° |
| 2026-05-08 08:22 | 41.30184 | 2.08102 | 22 ft | 3 kts | 67° |
| 2026-05-08 08:22 | 41.30186 | 2.08154 | 18 ft | 5 kts | 112° |
| 2026-05-08 08:22 | 41.30159 | 2.08185 | 18 ft | 8 kts | 143° |
| 2026-05-08 08:23 | 41.30111 | 2.08243 | 18 ft | 9 kts | 115° |
| 2026-05-08 08:23 | 41.30135 | 2.08364 | 18 ft | 17 kts | 64° |
| 2026-05-08 08:23 | 41.30185 | 2.08516 | 18 ft | 19 kts | 66° |
| 2026-05-08 08:23 | 41.30240 | 2.08680 | 18 ft | 20 kts | 66° |
| 2026-05-08 08:24 | 41.30301 | 2.08854 | 18 ft | 21 kts | 64° |
| 2026-05-08 08:24 | 41.30359 | 2.09019 | 20 ft | 17 kts | 65° |
| 2026-05-08 08:24 | 41.30409 | 2.09163 | 19 ft | 17 kts | 67° |
| 2026-05-08 08:24 | 41.30458 | 2.09315 | 21 ft | 19 kts | 67° |
| 2026-05-08 08:25 | 41.30493 | 2.09429 | 20 ft | 7 kts | 74° |
| 2026-05-08 08:25 | 41.30490 | 2.09486 | 18 ft | 6 kts | 113° |
| 2026-05-08 08:25 | 41.30464 | 2.09517 | 18 ft | 7 kts | 148° |
| 2026-05-08 08:25 | 41.30378 | 2.09519 | 18 ft | 17 kts | 206° |
| 2026-05-08 08:26 | 41.30364 | 2.09508 | 20 ft | 0 kts | 211° |
| 2026-05-08 08:26 | 41.30342 | 2.09489 | 20 ft | 15 kts | 212° |
| 2026-05-08 08:26 | 41.30237 | 2.09355 | 17 ft | 28 kts | 234° |
| 2026-05-08 08:27 | 41.30068 | 2.08908 | 20 ft | 89 kts | 245° |
| 2026-05-08 08:27 | 41.29720 | 2.07895 | 19 ft | 149 kts | 245° |
| 2026-05-08 08:27 | 41.29252 | 2.06452 | 184 ft | 183 kts | 247° |
| 2026-05-08 08:27 | 41.28716 | 2.04951 | 1015 ft | 177 kts | 241° |
| 2026-05-08 08:28 | 41.28179 | 2.03451 | 1643 ft | 186 kts | 244° |
| 2026-05-08 08:28 | 41.27604 | 2.01794 | 1954 ft | 208 kts | 244° |
| 2026-05-08 08:28 | 41.26966 | 1.99938 | 2247 ft | 233 kts | 244° |
| 2026-05-08 08:28 | 41.26259 | 1.97877 | 2690 ft | 256 kts | 244° |
| 2026-05-08 08:29 | 41.25503 | 1.95671 | 3398 ft | 267 kts | 245° |
| 2026-05-08 08:29 | 41.24727 | 1.93412 | 4261 ft | 271 kts | 244° |
| 2026-05-08 08:29 | 41.24011 | 1.91083 | 5132 ft | 275 kts | 255° |
| 2026-05-08 08:29 | 41.23871 | 1.88544 | 5991 ft | 279 kts | 277° |
| 2026-05-08 08:30 | 41.24453 | 1.86075 | 6802 ft | 283 kts | 299° |
| 2026-05-08 08:30 | 41.25686 | 1.84038 | 7617 ft | 286 kts | 319° |
| 2026-05-08 08:30 | 41.28710 | 1.80539 | 9292 ft | 291 kts | 319° |
| 2026-05-08 08:31 | 41.30249 | 1.78760 | 10098 ft | 295 kts | 319° |
| 2026-05-08 08:31 | 41.31806 | 1.76956 | 10841 ft | 298 kts | 318° |
| 2026-05-08 08:31 | 41.33401 | 1.75100 | 11268 ft | 316 kts | 318° |
| 2026-05-08 08:31 | 41.35108 | 1.73108 | 11514 ft | 336 kts | 318° |
| 2026-05-08 08:32 | 41.36887 | 1.71035 | 12129 ft | 343 kts | 318° |
| 2026-05-08 08:32 | 41.38670 | 1.68960 | 12810 ft | 347 kts | 318° |
| 2026-05-08 08:32 | 41.40516 | 1.66808 | 13552 ft | 350 kts | 317° |
| 2026-05-08 08:32 | 41.42327 | 1.64690 | 14209 ft | 352 kts | 317° |
| 2026-05-08 08:33 | 41.44172 | 1.62529 | 14853 ft | 355 kts | 317° |
| 2026-05-08 08:33 | 41.46036 | 1.60347 | 15488 ft | 357 kts | 317° |
| 2026-05-08 08:33 | 41.47908 | 1.58154 | 16109 ft | 360 kts | 317° |
| 2026-05-08 08:33 | 41.49799 | 1.55938 | 16732 ft | 363 kts | 317° |
| 2026-05-08 08:34 | 41.51706 | 1.53703 | 17353 ft | 366 kts | 317° |
| 2026-05-08 08:34 | 41.53761 | 1.51667 | 17938 ft | 372 kts | 327° |
| 2026-05-08 08:34 | 41.56110 | 1.50165 | 18477 ft | 377 kts | 339° |
| 2026-05-08 08:34 | 41.58667 | 1.49283 | 18972 ft | 383 kts | 349° |
| 2026-05-08 08:35 | 41.61304 | 1.48702 | 19466 ft | 386 kts | 348° |
| 2026-05-08 08:35 | 41.63965 | 1.48115 | 19957 ft | 389 kts | 348° |
| 2026-05-08 08:35 | 41.66646 | 1.47524 | 20443 ft | 392 kts | 348° |
| 2026-05-08 08:35 | 41.69348 | 1.46924 | 20922 ft | 395 kts | 348° |
| 2026-05-08 08:36 | 41.72075 | 1.46318 | 21395 ft | 398 kts | 348° |
| 2026-05-08 08:36 | 41.74821 | 1.45706 | 21849 ft | 402 kts | 348° |
| 2026-05-08 08:36 | 41.77585 | 1.45090 | 22331 ft | 404 kts | 348° |
| 2026-05-08 08:36 | 41.80367 | 1.44469 | 22830 ft | 406 kts | 347° |
| 2026-05-08 08:37 | 41.83164 | 1.43840 | 23294 ft | 409 kts | 347° |
| 2026-05-08 08:37 | 41.85973 | 1.43207 | 23712 ft | 411 kts | 347° |
| 2026-05-08 08:37 | 41.88806 | 1.42569 | 24091 ft | 414 kts | 347° |
| 2026-05-08 08:37 | 41.90689 | 1.42146 | 24340 ft | 416 kts | 347° |
| 2026-05-08 08:38 | 41.93551 | 1.41506 | 24714 ft | 418 kts | 347° |
| 2026-05-08 08:38 | 41.96431 | 1.40860 | 25076 ft | 421 kts | 347° |
| 2026-05-08 08:38 | 41.99330 | 1.40209 | 25458 ft | 423 kts | 347° |
| 2026-05-08 08:38 | 42.02236 | 1.39553 | 25829 ft | 425 kts | 347° |
| 2026-05-08 08:39 | 42.05158 | 1.38893 | 26182 ft | 427 kts | 347° |
| 2026-05-08 08:39 | 42.08092 | 1.38233 | 26533 ft | 429 kts | 347° |
| 2026-05-08 08:39 | 42.11050 | 1.37569 | 26881 ft | 432 kts | 346° |
| 2026-05-08 08:39 | 42.14021 | 1.36896 | 27243 ft | 434 kts | 346° |
| 2026-05-08 08:40 | 42.17007 | 1.36217 | 27557 ft | 436 kts | 346° |
| 2026-05-08 08:40 | 42.20009 | 1.35539 | 27950 ft | 439 kts | 346° |
| 2026-05-08 08:40 | 42.23024 | 1.34862 | 28347 ft | 440 kts | 346° |
| 2026-05-08 08:40 | 42.26052 | 1.34181 | 28683 ft | 442 kts | 346° |
| 2026-05-08 08:41 | 42.29093 | 1.33493 | 28997 ft | 444 kts | 346° |
| 2026-05-08 08:41 | 42.32150 | 1.32797 | 29327 ft | 447 kts | 346° |
| 2026-05-08 08:41 | 42.35219 | 1.32098 | 29635 ft | 449 kts | 346° |
| 2026-05-08 08:41 | 42.38307 | 1.31394 | 29940 ft | 451 kts | 346° |
| 2026-05-08 08:42 | 42.41406 | 1.30685 | 30216 ft | 453 kts | 346° |
| 2026-05-08 08:42 | 42.44515 | 1.29970 | 30471 ft | 454 kts | 346° |
| 2026-05-08 08:42 | 42.47635 | 1.29250 | 30691 ft | 456 kts | 346° |
| 2026-05-08 08:42 | 42.50771 | 1.28531 | 30936 ft | 457 kts | 346° |
| 2026-05-08 08:43 | 42.53903 | 1.27817 | 31271 ft | 456 kts | 346° |
| 2026-05-08 08:43 | 42.57032 | 1.27106 | 31607 ft | 455 kts | 345° |
| 2026-05-08 08:43 | 42.60157 | 1.26398 | 31926 ft | 455 kts | 345° |
| 2026-05-08 08:43 | 42.63269 | 1.25691 | 32342 ft | 453 kts | 345° |
| 2026-05-08 08:44 | 42.66374 | 1.24983 | 32722 ft | 451 kts | 345° |
| 2026-05-08 08:44 | 42.69464 | 1.24273 | 33067 ft | 451 kts | 345° |
| 2026-05-08 08:44 | 42.72557 | 1.23561 | 33423 ft | 450 kts | 345° |
| 2026-05-08 08:44 | 42.75658 | 1.22959 | 33672 ft | 451 kts | 347° |
| 2026-05-08 08:45 | 42.78788 | 1.22486 | 33950 ft | 453 kts | 349° |
| 2026-05-08 08:45 | 42.81924 | 1.22099 | 34209 ft | 452 kts | 349° |
| 2026-05-08 08:45 | 42.85024 | 1.21751 | 34458 ft | 453 kts | 350° |
| 2026-05-08 08:45 | 42.88200 | 1.21389 | 34717 ft | 452 kts | 349° |
| 2026-05-08 08:46 | 42.91326 | 1.21006 | 34951 ft | 451 kts | 348° |
| 2026-05-08 08:46 | 42.94456 | 1.20592 | 35165 ft | 451 kts | 348° |
| 2026-05-08 08:46 | 42.97532 | 1.20166 | 35415 ft | 450 kts | 348° |
| 2026-05-08 08:46 | 43.00647 | 1.19723 | 35647 ft | 450 kts | 348° |
| 2026-05-08 08:47 | 43.03756 | 1.19279 | 35892 ft | 448 kts | 348° |
| 2026-05-08 08:47 | 43.06846 | 1.18844 | 35948 ft | 444 kts | 348° |
| 2026-05-08 08:47 | 43.12967 | 1.17997 | 35954 ft | 441 kts | 348° |
| 2026-05-08 08:48 | 43.19066 | 1.17156 | 35950 ft | 440 kts | 348° |
| 2026-05-08 08:48 | 43.25163 | 1.16306 | 35949 ft | 439 kts | 348° |
| 2026-05-08 08:49 | 43.31238 | 1.15456 | 35953 ft | 439 kts | 348° |
| 2026-05-08 08:49 | 43.37315 | 1.14598 | 35951 ft | 439 kts | 348° |
| 2026-05-08 08:50 | 43.43390 | 1.13745 | 35970 ft | 439 kts | 348° |
| 2026-05-08 08:50 | 43.49474 | 1.12900 | 35967 ft | 439 kts | 348° |
| 2026-05-08 08:51 | 43.55550 | 1.12054 | 35962 ft | 439 kts | 348° |
| 2026-05-08 08:51 | 43.61506 | 1.10608 | 35973 ft | 429 kts | 335° |
| 2026-05-08 08:52 | 43.66962 | 1.07469 | 35989 ft | 424 kts | 330° |
| 2026-05-08 08:52 | 43.72334 | 1.04249 | 35984 ft | 423 kts | 330° |
| 2026-05-08 08:53 | 43.77733 | 1.01012 | 35976 ft | 423 kts | 330° |
| 2026-05-08 08:53 | 43.83130 | 0.97777 | 35989 ft | 422 kts | 331° |
| 2026-05-08 08:54 | 43.88518 | 0.94537 | 35979 ft | 421 kts | 330° |
| 2026-05-08 08:54 | 43.93892 | 0.91302 | 35985 ft | 420 kts | 330° |
| 2026-05-08 08:55 | 43.99252 | 0.88063 | 35982 ft | 420 kts | 330° |
| 2026-05-08 08:55 | 44.04605 | 0.84815 | 36008 ft | 420 kts | 331° |
| 2026-05-08 08:56 | 44.09953 | 0.81576 | 35991 ft | 419 kts | 331° |
| 2026-05-08 08:56 | 44.15293 | 0.78348 | 35990 ft | 418 kts | 331° |
| 2026-05-08 08:57 | 44.20616 | 0.75111 | 35975 ft | 418 kts | 331° |
| 2026-05-08 08:57 | 44.25959 | 0.71849 | 35972 ft | 419 kts | 331° |
| 2026-05-08 08:58 | 44.31303 | 0.68580 | 35961 ft | 419 kts | 331° |
| 2026-05-08 08:58 | 44.36650 | 0.65314 | 35961 ft | 419 kts | 331° |
| 2026-05-08 08:59 | 44.41986 | 0.62029 | 35989 ft | 419 kts | 331° |
| 2026-05-08 08:59 | 44.47321 | 0.58739 | 35977 ft | 419 kts | 331° |
| 2026-05-08 09:00 | 44.52617 | 0.55479 | 35973 ft | 418 kts | 331° |
| 2026-05-08 09:00 | 44.57948 | 0.52191 | 35975 ft | 418 kts | 331° |
| 2026-05-08 09:01 | 44.63264 | 0.48899 | 35988 ft | 418 kts | 331° |
| 2026-05-08 09:01 | 44.68578 | 0.45614 | 35987 ft | 417 kts | 331° |
| 2026-05-08 09:02 | 44.73882 | 0.42322 | 35985 ft | 416 kts | 331° |
| 2026-05-08 09:02 | 44.79179 | 0.39028 | 35982 ft | 416 kts | 331° |
| 2026-05-08 09:03 | 44.84478 | 0.35727 | 35960 ft | 417 kts | 331° |
| 2026-05-08 09:03 | 44.89788 | 0.32406 | 35953 ft | 418 kts | 331° |
| 2026-05-08 09:04 | 44.95140 | 0.29040 | 35949 ft | 419 kts | 331° |
| 2026-05-08 09:04 | 45.00430 | 0.25717 | 35964 ft | 419 kts | 332° |
| 2026-05-08 09:05 | 45.05761 | 0.22374 | 35971 ft | 419 kts | 332° |
| 2026-05-08 09:05 | 45.11082 | 0.19025 | 35971 ft | 418 kts | 332° |
| 2026-05-08 09:06 | 45.16404 | 0.15676 | 35965 ft | 418 kts | 332° |
| 2026-05-08 09:06 | 45.21720 | 0.12324 | 35987 ft | 418 kts | 331° |
| 2026-05-08 09:07 | 45.27023 | 0.08962 | 35983 ft | 417 kts | 331° |
| 2026-05-08 09:07 | 45.32323 | 0.05593 | 35979 ft | 417 kts | 331° |
| 2026-05-08 09:08 | 45.37614 | 0.02224 | 35974 ft | 416 kts | 331° |
| 2026-05-08 09:08 | 45.42901 | -0.01149 | 35979 ft | 416 kts | 331° |
| 2026-05-08 09:09 | 45.48190 | -0.04532 | 35948 ft | 417 kts | 331° |
| 2026-05-08 09:09 | 45.53485 | -0.07927 | 35958 ft | 418 kts | 331° |
| 2026-05-08 09:10 | 45.58788 | -0.11334 | 35970 ft | 418 kts | 331° |
| 2026-05-08 09:10 | 45.64093 | -0.14735 | 35989 ft | 418 kts | 331° |
| 2026-05-08 09:11 | 45.69391 | -0.18144 | 35990 ft | 418 kts | 331° |
| 2026-05-08 09:11 | 45.74693 | -0.21563 | 35959 ft | 418 kts | 331° |
| 2026-05-08 09:12 | 45.79990 | -0.24989 | 35980 ft | 418 kts | 331° |
| 2026-05-08 09:12 | 45.85240 | -0.28408 | 35981 ft | 417 kts | 331° |
| 2026-05-08 09:13 | 45.90560 | -0.31866 | 35974 ft | 417 kts | 331° |
| 2026-05-08 09:13 | 45.95805 | -0.35273 | 35978 ft | 416 kts | 331° |
| 2026-05-08 09:14 | 46.01076 | -0.38714 | 35994 ft | 416 kts | 331° |
| 2026-05-08 09:14 | 46.06337 | -0.42161 | 35991 ft | 415 kts | 331° |
| 2026-05-08 09:15 | 46.11590 | -0.45601 | 35986 ft | 415 kts | 331° |
| 2026-05-08 09:15 | 46.16840 | -0.49044 | 36003 ft | 415 kts | 331° |
| 2026-05-08 09:16 | 46.22090 | -0.52490 | 35995 ft | 414 kts | 331° |
| 2026-05-08 09:16 | 46.27329 | -0.55950 | 35993 ft | 414 kts | 331° |
| 2026-05-08 09:17 | 46.32564 | -0.59413 | 35988 ft | 413 kts | 331° |
| 2026-05-08 09:17 | 46.37794 | -0.62877 | 35996 ft | 413 kts | 331° |
| 2026-05-08 09:18 | 46.43124 | -0.66033 | 35987 ft | 418 kts | 341° |
| 2026-05-08 09:18 | 46.48927 | -0.67285 | 35986 ft | 423 kts | 348° |
| 2026-05-08 09:19 | 46.54769 | -0.68259 | 35977 ft | 423 kts | 348° |
| 2026-05-08 09:19 | 46.60614 | -0.69248 | 35994 ft | 423 kts | 348° |
| 2026-05-08 09:20 | 46.66456 | -0.70238 | 35990 ft | 422 kts | 348° |
| 2026-05-08 09:20 | 46.72295 | -0.71221 | 35985 ft | 422 kts | 348° |
| 2026-05-08 09:21 | 46.78127 | -0.72208 | 35984 ft | 422 kts | 348° |
| 2026-05-08 09:23 | 46.98533 | -0.75685 | 35991 ft | 422 kts | 348° |
| 2026-05-08 09:23 | 47.04363 | -0.76680 | 35988 ft | 421 kts | 348° |
| 2026-05-08 09:24 | 47.10186 | -0.77666 | 35989 ft | 421 kts | 348° |
| 2026-05-08 09:24 | 47.15029 | -0.78489 | 35987 ft | 421 kts | 348° |
| 2026-05-08 09:25 | 47.20853 | -0.79486 | 36004 ft | 421 kts | 348° |
| 2026-05-08 09:25 | 47.26668 | -0.80491 | 36001 ft | 420 kts | 348° |
| 2026-05-08 09:26 | 47.32473 | -0.81503 | 35998 ft | 420 kts | 348° |
| 2026-05-08 09:26 | 47.38278 | -0.82511 | 35994 ft | 420 kts | 348° |
| 2026-05-08 09:27 | 47.44082 | -0.83515 | 35996 ft | 420 kts | 348° |
| 2026-05-08 09:27 | 47.49888 | -0.84529 | 35985 ft | 420 kts | 348° |
| 2026-05-08 09:28 | 47.55687 | -0.85599 | 35983 ft | 419 kts | 346° |
| 2026-05-08 09:28 | 47.61418 | -0.87069 | 36000 ft | 418 kts | 344° |
| 2026-05-08 09:29 | 47.67124 | -0.88693 | 35996 ft | 417 kts | 344° |
| 2026-05-08 09:29 | 47.72828 | -0.90270 | 35998 ft | 417 kts | 345° |
| 2026-05-08 09:30 | 47.78548 | -0.91793 | 35992 ft | 417 kts | 345° |
| 2026-05-08 09:30 | 47.84260 | -0.93297 | 36036 ft | 417 kts | 345° |
| 2026-05-08 09:31 | 47.89970 | -0.94816 | 36016 ft | 417 kts | 345° |
| 2026-05-08 09:31 | 47.95674 | -0.96350 | 36006 ft | 416 kts | 345° |
| 2026-05-08 09:32 | 48.01332 | -0.97873 | 36018 ft | 416 kts | 345° |
| 2026-05-08 09:32 | 48.07029 | -0.99404 | 36015 ft | 416 kts | 345° |
| 2026-05-08 09:33 | 48.12723 | -1.00939 | 36007 ft | 416 kts | 345° |
| 2026-05-08 09:33 | 48.18416 | -1.02477 | 36011 ft | 416 kts | 345° |
| 2026-05-08 09:34 | 48.24106 | -1.04014 | 36027 ft | 415 kts | 345° |
| 2026-05-08 09:34 | 48.29790 | -1.05560 | 36025 ft | 415 kts | 345° |
| 2026-05-08 09:35 | 48.35474 | -1.07107 | 36024 ft | 415 kts | 345° |
| 2026-05-08 09:35 | 48.41154 | -1.08660 | 36023 ft | 415 kts | 345° |
| 2026-05-08 09:36 | 48.46835 | -1.10219 | 36033 ft | 415 kts | 345° |
| 2026-05-08 09:36 | 48.52511 | -1.11780 | 36031 ft | 414 kts | 345° |
| 2026-05-08 09:37 | 48.58183 | -1.13327 | 36033 ft | 414 kts | 345° |
| 2026-05-08 09:37 | 48.63851 | -1.14882 | 36030 ft | 414 kts | 345° |
| 2026-05-08 09:38 | 48.69515 | -1.16451 | 36045 ft | 413 kts | 345° |
| 2026-05-08 09:38 | 48.75173 | -1.18023 | 36042 ft | 413 kts | 345° |
| 2026-05-08 09:39 | 48.80826 | -1.19591 | 36041 ft | 413 kts | 345° |
| 2026-05-08 09:39 | 48.86484 | -1.21158 | 36040 ft | 413 kts | 345° |
| 2026-05-08 09:40 | 48.92137 | -1.22725 | 36045 ft | 413 kts | 345° |
| 2026-05-08 09:40 | 48.97789 | -1.24299 | 36040 ft | 413 kts | 345° |
| 2026-05-08 09:41 | 49.03434 | -1.25887 | 36037 ft | 413 kts | 345° |
| 2026-05-08 09:41 | 49.09081 | -1.27481 | 36063 ft | 413 kts | 345° |
| 2026-05-08 09:42 | 49.14729 | -1.29063 | 36060 ft | 412 kts | 345° |
| 2026-05-08 09:42 | 49.20372 | -1.30644 | 36063 ft | 412 kts | 345° |
| 2026-05-08 09:43 | 49.25968 | -1.32223 | 36069 ft | 412 kts | 345° |
| 2026-05-08 09:43 | 49.31606 | -1.33818 | 36059 ft | 412 kts | 345° |
| 2026-05-08 09:44 | 49.37253 | -1.35413 | 36054 ft | 413 kts | 345° |
| 2026-05-08 09:44 | 49.42901 | -1.37021 | 36046 ft | 413 kts | 345° |
| 2026-05-08 09:45 | 49.48558 | -1.38639 | 36059 ft | 413 kts | 345° |
| 2026-05-08 09:45 | 49.54216 | -1.40258 | 36068 ft | 414 kts | 345° |
| 2026-05-08 09:46 | 49.59920 | -1.41524 | 36061 ft | 419 kts | 355° |
| 2026-05-08 09:46 | 49.65768 | -1.41081 | 36059 ft | 421 kts | 358° |
| 2026-05-08 09:47 | 49.71619 | -1.40563 | 36059 ft | 421 kts | 358° |
| 2026-05-08 09:47 | 49.77468 | -1.40049 | 36078 ft | 421 kts | 359° |
| 2026-05-08 09:48 | 49.83316 | -1.39534 | 36073 ft | 421 kts | 359° |
| 2026-05-08 09:48 | 49.89167 | -1.39020 | 36072 ft | 421 kts | 359° |
| 2026-05-08 09:49 | 49.95015 | -1.38501 | 36074 ft | 421 kts | 359° |
| 2026-05-08 09:49 | 50.00860 | -1.37844 | 36087 ft | 424 kts | 4° |
| 2026-05-08 09:50 | 50.06683 | -1.36381 | 36095 ft | 424 kts | 5° |
| 2026-05-08 09:50 | 50.12495 | -1.34935 | 36093 ft | 423 kts | 5° |
| 2026-05-08 09:51 | 50.18300 | -1.33505 | 36090 ft | 422 kts | 5° |
| 2026-05-08 09:51 | 50.24098 | -1.32064 | 36096 ft | 422 kts | 5° |
| 2026-05-08 09:52 | 50.29849 | -1.30611 | 36086 ft | 421 kts | 5° |
| 2026-05-08 09:52 | 50.35673 | -1.29148 | 36079 ft | 421 kts | 5° |
| 2026-05-08 09:53 | 50.41457 | -1.27697 | 36095 ft | 421 kts | 5° |
| 2026-05-08 09:53 | 50.47238 | -1.26226 | 36086 ft | 422 kts | 7° |
| 2026-05-08 09:54 | 50.52740 | -1.23022 | 36081 ft | 431 kts | 26° |
| 2026-05-08 09:54 | 50.57836 | -1.17977 | 36079 ft | 433 kts | 28° |
| 2026-05-08 09:55 | 50.62962 | -1.12878 | 36078 ft | 433 kts | 28° |
| 2026-05-08 09:55 | 50.68054 | -1.07805 | 36095 ft | 433 kts | 28° |
| 2026-05-08 09:56 | 50.73119 | -1.02751 | 36090 ft | 433 kts | 28° |
| 2026-05-08 09:56 | 50.78210 | -0.97654 | 36090 ft | 433 kts | 28° |
| 2026-05-08 09:57 | 50.86274 | -0.91612 | 36088 ft | 426 kts | 14° |
| 2026-05-08 09:57 | 50.91924 | -0.88718 | 36081 ft | 427 kts | 14° |
| 2026-05-08 09:58 | 50.97580 | -0.85809 | 36079 ft | 428 kts | 14° |
| 2026-05-08 09:58 | 51.03238 | -0.82872 | 36078 ft | 428 kts | 14° |
| 2026-05-08 09:59 | 51.08898 | -0.79911 | 36081 ft | 428 kts | 15° |
| 2026-05-08 09:59 | 51.14564 | -0.76940 | 36084 ft | 429 kts | 14° |
| 2026-05-08 10:00 | 51.20232 | -0.73981 | 36083 ft | 429 kts | 14° |
| 2026-05-08 10:00 | 51.25902 | -0.71015 | 36088 ft | 429 kts | 14° |
| 2026-05-08 10:01 | 51.31574 | -0.68031 | 36093 ft | 429 kts | 15° |
| 2026-05-08 10:01 | 51.37243 | -0.65043 | 36125 ft | 429 kts | 15° |
| 2026-05-08 10:02 | 51.42920 | -0.62046 | 36123 ft | 429 kts | 15° |
| 2026-05-08 10:02 | 51.48592 | -0.59043 | 36121 ft | 429 kts | 15° |
| 2026-05-08 10:03 | 51.54262 | -0.56024 | 36120 ft | 429 kts | 15° |
| 2026-05-08 10:03 | 51.59934 | -0.52994 | 36094 ft | 429 kts | 15° |
| 2026-05-08 10:04 | 51.62759 | -0.51489 | 35628 ft | 427 kts | 15° |
| 2026-05-08 10:04 | 51.65562 | -0.49995 | 35209 ft | 421 kts | 14° |
| 2026-05-08 10:04 | 51.68325 | -0.48516 | 34837 ft | 416 kts | 14° |
| 2026-05-08 10:04 | 51.71056 | -0.47051 | 34227 ft | 415 kts | 14° |
| 2026-05-08 10:05 | 51.73823 | -0.45578 | 33265 ft | 421 kts | 13° |
| 2026-05-08 10:05 | 51.76625 | -0.44612 | 32612 ft | 414 kts | 3° |
| 2026-05-08 10:05 | 51.79545 | -0.44458 | 32084 ft | 417 kts | 354° |
| 2026-05-08 10:05 | 51.82370 | -0.45124 | 31683 ft | 416 kts | 345° |
| 2026-05-08 10:06 | 51.85142 | -0.46629 | 31294 ft | 414 kts | 335° |
| 2026-05-08 10:06 | 51.87668 | -0.48836 | 30917 ft | 413 kts | 329° |
| 2026-05-08 10:06 | 51.90121 | -0.51231 | 30546 ft | 411 kts | 329° |
| 2026-05-08 10:06 | 51.92581 | -0.53636 | 30171 ft | 417 kts | 329° |
| 2026-05-08 10:07 | 51.95078 | -0.56076 | 29740 ft | 420 kts | 329° |
| 2026-05-08 10:07 | 51.97585 | -0.58520 | 29310 ft | 421 kts | 329° |
| 2026-05-08 10:07 | 52.00130 | -0.60999 | 28884 ft | 430 kts | 329° |
| 2026-05-08 10:07 | 52.02697 | -0.63504 | 28462 ft | 431 kts | 329° |
| 2026-05-08 10:08 | 52.05233 | -0.65986 | 28067 ft | 431 kts | 328° |
| 2026-05-08 10:08 | 52.07832 | -0.68538 | 27659 ft | 430 kts | 328° |
| 2026-05-08 10:08 | 52.10355 | -0.71022 | 27262 ft | 429 kts | 328° |
| 2026-05-08 10:08 | 52.12907 | -0.73535 | 26873 ft | 428 kts | 328° |
| 2026-05-08 10:09 | 52.15449 | -0.76042 | 26485 ft | 427 kts | 328° |
| 2026-05-08 10:09 | 52.17980 | -0.78544 | 26113 ft | 426 kts | 328° |
| 2026-05-08 10:09 | 52.20506 | -0.81045 | 25722 ft | 425 kts | 327° |
| 2026-05-08 10:09 | 52.23031 | -0.83547 | 25348 ft | 424 kts | 327° |
| 2026-05-08 10:10 | 52.25548 | -0.86043 | 24975 ft | 423 kts | 327° |
| 2026-05-08 10:10 | 52.28060 | -0.88538 | 24610 ft | 423 kts | 327° |
| 2026-05-08 10:10 | 52.30576 | -0.91037 | 24259 ft | 423 kts | 327° |
| 2026-05-08 10:10 | 52.33086 | -0.93528 | 23902 ft | 422 kts | 327° |
| 2026-05-08 10:11 | 52.34745 | -0.95177 | 23678 ft | 421 kts | 327° |
| 2026-05-08 10:11 | 52.37245 | -0.97668 | 23266 ft | 420 kts | 327° |
| 2026-05-08 10:11 | 52.39732 | -1.00158 | 22842 ft | 418 kts | 327° |
| 2026-05-08 10:11 | 52.42207 | -1.02644 | 22435 ft | 416 kts | 327° |
| 2026-05-08 10:12 | 52.44666 | -1.05113 | 22005 ft | 413 kts | 327° |
| 2026-05-08 10:12 | 52.47111 | -1.07565 | 21593 ft | 411 kts | 327° |
| 2026-05-08 10:12 | 52.49546 | -1.10009 | 21201 ft | 409 kts | 327° |
| 2026-05-08 10:12 | 52.51963 | -1.12442 | 20816 ft | 407 kts | 327° |
| 2026-05-08 10:13 | 52.54369 | -1.14867 | 20430 ft | 405 kts | 327° |
| 2026-05-08 10:13 | 52.56764 | -1.17279 | 20094 ft | 402 kts | 327° |
| 2026-05-08 10:13 | 52.59149 | -1.19685 | 20019 ft | 402 kts | 326° |
| 2026-05-08 10:13 | 52.61530 | -1.22092 | 20032 ft | 403 kts | 326° |
| 2026-05-08 10:14 | 52.63919 | -1.24507 | 20030 ft | 403 kts | 326° |
| 2026-05-08 10:14 | 52.66306 | -1.26923 | 20029 ft | 403 kts | 326° |
| 2026-05-08 10:14 | 52.68695 | -1.29343 | 20028 ft | 403 kts | 326° |
| 2026-05-08 10:14 | 52.71079 | -1.31757 | 19990 ft | 401 kts | 327° |
| 2026-05-08 10:15 | 52.73451 | -1.34140 | 19523 ft | 398 kts | 327° |
| 2026-05-08 10:15 | 52.75803 | -1.36503 | 18997 ft | 395 kts | 327° |
| 2026-05-08 10:15 | 52.78152 | -1.38845 | 18462 ft | 392 kts | 327° |
| 2026-05-08 10:15 | 52.80481 | -1.41157 | 17892 ft | 390 kts | 327° |
| 2026-05-08 10:16 | 52.82795 | -1.43460 | 17328 ft | 386 kts | 327° |
| 2026-05-08 10:16 | 52.85086 | -1.45748 | 16799 ft | 383 kts | 327° |
| 2026-05-08 10:16 | 52.87358 | -1.48026 | 16277 ft | 380 kts | 327° |
| 2026-05-08 10:16 | 52.89606 | -1.50286 | 15786 ft | 377 kts | 327° |
| 2026-05-08 10:17 | 52.91842 | -1.52539 | 15289 ft | 374 kts | 327° |
| 2026-05-08 10:17 | 52.94059 | -1.54771 | 14784 ft | 372 kts | 327° |
| 2026-05-08 10:17 | 52.96264 | -1.56995 | 14297 ft | 370 kts | 327° |
| 2026-05-08 10:17 | 52.98452 | -1.59208 | 13809 ft | 367 kts | 327° |
| 2026-05-08 10:18 | 53.00679 | -1.61258 | 13276 ft | 366 kts | 336° |
| 2026-05-08 10:18 | 53.03062 | -1.62604 | 13055 ft | 355 kts | 340° |
| 2026-05-08 10:18 | 53.05370 | -1.63821 | 12921 ft | 342 kts | 340° |
| 2026-05-08 10:18 | 53.07608 | -1.64995 | 12615 ft | 335 kts | 340° |
| 2026-05-08 10:19 | 53.09836 | -1.66165 | 12108 ft | 336 kts | 341° |
| 2026-05-08 10:19 | 53.12057 | -1.67328 | 11664 ft | 333 kts | 340° |
| 2026-05-08 10:19 | 53.14246 | -1.68473 | 11412 ft | 325 kts | 340° |
| 2026-05-08 10:20 | 53.18317 | -1.70590 | 10802 ft | 294 kts | 340° |
| 2026-05-08 10:20 | 53.20258 | -1.71593 | 10231 ft | 290 kts | 340° |
| 2026-05-08 10:20 | 53.22158 | -1.72566 | 9896 ft | 277 kts | 340° |
| 2026-05-08 10:20 | 53.23955 | -1.73485 | 9508 ft | 266 kts | 341° |
| 2026-05-08 10:21 | 53.25715 | -1.74408 | 8941 ft | 265 kts | 341° |
| 2026-05-08 10:21 | 53.27464 | -1.75345 | 8354 ft | 264 kts | 341° |
| 2026-05-08 10:21 | 53.29205 | -1.76280 | 7780 ft | 262 kts | 340° |
| 2026-05-08 10:21 | 53.30938 | -1.77215 | 7216 ft | 261 kts | 341° |
| 2026-05-08 10:22 | 53.32663 | -1.78164 | 6774 ft | 261 kts | 341° |
| 2026-05-08 10:22 | 53.34371 | -1.79110 | 6562 ft | 254 kts | 340° |
| 2026-05-08 10:22 | 53.35992 | -1.80013 | 6436 ft | 244 kts | 341° |
| 2026-05-08 10:22 | 53.37585 | -1.80902 | 6270 ft | 239 kts | 340° |
| 2026-05-08 10:23 | 53.39158 | -1.81771 | 6042 ft | 237 kts | 341° |
| 2026-05-08 10:23 | 53.40723 | -1.82644 | 5767 ft | 238 kts | 340° |
| 2026-05-08 10:23 | 53.42268 | -1.83510 | 5592 ft | 228 kts | 340° |
| 2026-05-08 10:23 | 53.43729 | -1.84323 | 5453 ft | 215 kts | 341° |
| 2026-05-08 10:24 | 53.45115 | -1.85097 | 5289 ft | 206 kts | 340° |
| 2026-05-08 10:24 | 53.46466 | -1.85851 | 5003 ft | 204 kts | 340° |
| 2026-05-08 10:24 | 53.47814 | -1.86602 | 4691 ft | 204 kts | 341° |
| 2026-05-08 10:24 | 53.49150 | -1.87362 | 4398 ft | 201 kts | 338° |
| 2026-05-08 10:25 | 53.50255 | -1.88674 | 4093 ft | 194 kts | 300° |
| 2026-05-08 10:25 | 53.50689 | -1.90753 | 3788 ft | 188 kts | 274° |
| 2026-05-08 10:25 | 53.50555 | -1.92890 | 3542 ft | 184 kts | 244° |
| 2026-05-08 10:25 | 53.50035 | -1.94811 | 3484 ft | 173 kts | 242° |
| 2026-05-08 10:26 | 53.49539 | -1.96611 | 3517 ft | 167 kts | 242° |
| 2026-05-08 10:26 | 53.49057 | -1.98357 | 3533 ft | 164 kts | 241° |
| 2026-05-08 10:26 | 53.48542 | -2.00047 | 3510 ft | 161 kts | 232° |
| 2026-05-08 10:26 | 53.47856 | -2.01527 | 3500 ft | 161 kts | 228° |
| 2026-05-08 10:27 | 53.47153 | -2.02984 | 3501 ft | 161 kts | 228° |
| 2026-05-08 10:27 | 53.46449 | -2.04451 | 3450 ft | 161 kts | 227° |
| 2026-05-08 10:27 | 53.45750 | -2.05909 | 3282 ft | 160 kts | 228° |
| 2026-05-08 10:27 | 53.45058 | -2.07354 | 3096 ft | 159 kts | 228° |
| 2026-05-08 10:28 | 53.44368 | -2.08793 | 2886 ft | 157 kts | 228° |
| 2026-05-08 10:28 | 53.43683 | -2.10223 | 2686 ft | 158 kts | 227° |
| 2026-05-08 10:28 | 53.42996 | -2.11653 | 2474 ft | 157 kts | 227° |
| 2026-05-08 10:28 | 53.42310 | -2.13083 | 2256 ft | 157 kts | 228° |
| 2026-05-08 10:29 | 53.41621 | -2.14518 | 2043 ft | 158 kts | 229° |
| 2026-05-08 10:29 | 53.40930 | -2.15957 | 1827 ft | 158 kts | 229° |
| 2026-05-08 10:29 | 53.40279 | -2.17315 | 1612 ft | 144 kts | 229° |
| 2026-05-08 10:29 | 53.39671 | -2.18580 | 1421 ft | 137 kts | 226° |
| 2026-05-08 10:30 | 53.39075 | -2.19816 | 1236 ft | 134 kts | 226° |
| 2026-05-08 10:30 | 53.38474 | -2.21055 | 1067 ft | 138 kts | 227° |
| 2026-05-08 10:30 | 53.37868 | -2.22312 | 885 ft | 138 kts | 230° |
| 2026-05-08 10:30 | 53.37268 | -2.23560 | 647 ft | 139 kts | 228° |
| 2026-05-08 10:31 | 53.36661 | -2.24808 | 447 ft | 139 kts | 231° |
| 2026-05-08 10:31 | 53.36061 | -2.26075 | 300 ft | 138 kts | 232° |
| 2026-05-08 10:31 | 53.35505 | -2.27235 | 255 ft | 85 kts | 230° |
| 2026-05-08 10:31 | 53.35323 | -2.27613 | 249 ft | 11 kts | 236° |
| 2026-05-08 10:32 | 53.35255 | -2.27908 | 239 ft | 31 kts | 258° |
| 2026-05-08 10:32 | 53.35242 | -2.28010 | 239 ft | 3 kts | 259° |
| 2026-05-08 10:32 | 53.35237 | -2.28058 | 238 ft | 9 kts | 259° |
| 2026-05-08 10:32 | 53.35230 | -2.28153 | 236 ft | 7 kts | 278° |
| 2026-05-08 10:33 | 53.35259 | -2.28197 | 236 ft | 5 kts | 341° |
| 2026-05-08 10:33 | 53.35262 | -2.28198 | 236 ft | 0 kts | 345° |
| 2026-05-08 10:34 | 53.35270 | -2.28200 | 237 ft | 7 kts | 352° |
| 2026-05-08 10:34 | 53.35327 | -2.28185 | 238 ft | 7 kts | 11° |
| 2026-05-08 10:35 | 53.35365 | -2.28173 | 240 ft | 4 kts | 11° |
| 2026-05-08 10:35 | 53.35416 | -2.28157 | 241 ft | 12 kts | 10° |
| 2026-05-08 10:35 | 53.35483 | -2.28128 | 243 ft | 8 kts | 22° |
| 2026-05-08 10:35 | 53.35552 | -2.28044 | 246 ft | 13 kts | 47° |
| 2026-05-08 10:36 | 53.35605 | -2.27944 | 249 ft | 11 kts | 49° |
| 2026-05-08 10:36 | 53.35705 | -2.27884 | 252 ft | 16 kts | 7° |
| 2026-05-08 10:36 | 53.35768 | -2.27875 | 255 ft | 6 kts | 5° |
| 2026-05-08 10:36 | 53.35823 | -2.27863 | 255 ft | 12 kts | 7° |
| 2026-05-08 10:37 | 53.35902 | -2.27853 | 255 ft | 11 kts | 5° |
| 2026-05-08 10:37 | 53.35973 | -2.27841 | 255 ft | 9 kts | 6° |
| 2026-05-08 10:37 | 53.36033 | -2.27843 | 255 ft | 8 kts | 349° |
| 2026-05-08 10:37 | 53.36099 | -2.27913 | 255 ft | 12 kts | 318° |
| 2026-05-08 10:38 | 53.36155 | -2.28005 | 255 ft | 11 kts | 313° |
| 2026-05-08 10:38 | 53.36203 | -2.28087 | 255 ft | 11 kts | 316° |
| 2026-05-08 10:38 | 53.36270 | -2.28195 | 255 ft | 5 kts | 309° |
| 2026-05-08 10:38 | 53.36293 | -2.28239 | 255 ft | 7 kts | 313° |
| 2026-05-08 10:39 | 53.36359 | -2.28351 | 255 ft | 17 kts | 315° |
| 2026-05-08 10:39 | 53.36449 | -2.28489 | 255 ft | 18 kts | 319° |
| 2026-05-08 10:39 | 53.36496 | -2.28569 | 255 ft | 10 kts | 314° |
| 2026-05-08 10:39 | 53.36549 | -2.28670 | 255 ft | 13 kts | 306° |
| 2026-05-08 10:40 | 53.36611 | -2.28768 | 255 ft | 13 kts | 356° |
| 2026-05-08 10:40 | 53.36676 | -2.28701 | 255 ft | 6 kts | 40° |
| 2026-05-08 10:40 | 53.36715 | -2.28697 | 255 ft | 3 kts | 325° |
| 2026-05-08 10:40 | 53.36738 | -2.28733 | 255 ft | 5 kts | 317° |
| 2026-05-08 10:41 | 53.36740 | -2.28736 | 255 ft | 0 kts | 317° |
| 2026-05-08 10:41 | 53.36745 | -2.28745 | 255 ft | 3 kts | 315° |
| 2026-05-08 10:41 | 53.36754 | -2.28759 | 255 ft | 0 kts | 319° |